首页
METAR-TAF:

METAR-TAF

机场 :

傑克遜斯國際機場

莫尔兹比港, 巴布亞新幾內亞

纬度: 09-26S, 经度: 147-13E, 海拔: 38米

当前天气观测

该预报发布于21分钟前的05:00 UTC
风速15节,风向南转南东,有时为25节阵风
温度 30°C
湿度 66%
气压 1009 hPa
能见度10公里或以上
多云层高于2000英尺
多云层高于3000英尺
多云层高于5000英尺

METAR: AYPY 190500Z 15015G25KT 9999 HZ BKN020 BKN030 BKN050 30/23 Q1009 RMK/BUILD UPS IN AREA

时间: 15:21 (05:21 UTC)

预报

预报有效从19日的 00点(UTC)到 19日的 24点(UTC)
风速6节,风向西转西南
能见度10公里或以上
散云层高于1800英尺
多云层高于14000英尺
从 19日的 0200点(UTC)
风速8节,风向
能見度: 3000
散云层高于1600英尺
散云层高于3000英尺
多云层高于12000英尺
少量云层高于1800英尺, 积雨云.
多云层高于800英尺
小阵雨, 雷暴, 雨

TAF: AYPY 1900/1924 24006KT 9999 SCT018 BKN140 FM190200 19008KT 9999 -SHRA SCT016 SCT030 BKN120 INTER 1905/1909 3000 TSRA FEW018CB BKN008

超过4000个机场的气象观测和天气预报(METAR&TAF报告)。

可查询的气象台以黄色和红色小点在地图上表示。

将鼠标移到小点上方,可查看气象台名称。

然后点击查看天气观测和预报。

如需切换地图:点击带黑十字的绿色按钮放大地图;点击带横线的绿色按钮缩小地图;或者点击绿色箭头查看邻近地区的地图。


METAR-TAF: